Time;durP1;ratioP1;P1;durP2;ratioP2;P2;SDS_P1;SDS_P2;PMS_P1;PMS_P2;Temp;Humidity;BMP_temperature;BMP_pressure;BME280_temperature;BME280_humidity;BME280_pressure;Samples;Min_cycle;Max_cycle;Signal;HPM_P1;HPM_P2
2022/05/05 00:01:54;;;;;;;15.80;5.80;;;7.90;99.90;;;;;;5029127;28;20053;-73
2022/05/05 00:04:22;;;;;;;16.30;5.55;;;8.00;99.90;;;;;;4977756;28;105789;-73
2022/05/05 00:06:48;;;;;;;15.90;5.40;;;7.90;99.90;;;;;;5024557;28;20074;-73
2022/05/05 00:09:15;;;;;;;14.27;5.20;;;7.90;99.90;;;;;;4989406;28;27260;-73
2022/05/05 00:14:31;;;;;;;15.75;5.20;;;7.90;99.90;;;;;;5028696;22;20048;-81
2022/05/05 00:17:02;;;;;;;14.77;5.40;;;7.80;99.90;;;;;;5036466;28;20402;-79
2022/05/05 00:19:31;;;;;;;12.88;4.88;;;7.80;99.90;;;;;;4974086;28;159792;-80
2022/05/05 00:21:57;;;;;;;14.73;5.07;;;7.80;99.90;;;;;;5012069;28;20413;-80
2022/05/05 00:24:23;;;;;;;13.30;4.75;;;7.80;99.90;;;;;;4990351;28;209130;-79
2022/05/05 00:26:49;;;;;;;13.05;5.53;;;7.80;99.90;;;;;;5023126;23;20069;-74
2022/05/05 00:29:16;;;;;;;13.82;5.28;;;7.70;99.90;;;;;;4975705;28;157807;-74
2022/05/05 00:31:43;;;;;;;13.18;5.25;;;7.70;99.90;;;;;;5035315;28;20498;-74
2022/05/05 00:34:09;;;;;;;16.92;4.68;;;7.80;99.90;;;;;;4992207;28;84997;-73
2022/05/05 00:36:36;;;;;;;15.80;5.45;;;7.70;99.90;;;;;;5044349;28;20045;-73
2022/05/05 00:39:03;;;;;;;14.40;5.03;;;7.70;99.90;;;;;;5006876;22;84749;-67
2022/05/05 00:41:34;;;;;;;14.18;5.20;;;7.70;99.90;;;;;;5045351;28;20053;-67
2022/05/05 00:44:02;;;;;;;11.05;4.43;;;7.70;99.90;;;;;;4986418;28;202696;-69
2022/05/05 00:46:29;;;;;;;11.98;5.00;;;7.70;99.90;;;;;;5048228;28;20056;-68
2022/05/05 00:48:55;;;;;;;12.60;4.53;;;7.70;99.90;;;;;;5000491;28;93263;-67
2022/05/05 00:51:21;;;;;;;14.90;4.97;;;7.70;99.90;;;;;;5018585;28;20053;-68
2022/05/05 00:53:48;;;;;;;14.82;5.15;;;7.70;99.90;;;;;;4986884;28;20044;-68
2022/05/05 00:56:16;;;;;;;13.10;4.95;;;7.70;99.90;;;;;;5008588;28;111436;-68
2022/05/05 00:58:46;;;;;;;11.98;4.70;;;7.80;99.90;;;;;;4984702;28;20053;-68
2022/05/05 01:01:17;;;;;;;15.45;5.43;;;7.70;99.90;;;;;;5012427;28;24284;-68
2022/05/05 01:03:44;;;;;;;12.10;4.78;;;7.80;99.90;;;;;;4984659;28;20051;-68
2022/05/05 01:06:10;;;;;;;11.10;4.47;;;7.80;99.90;;;;;;4976255;28;198176;-68
2022/05/05 01:08:36;;;;;;;12.38;4.50;;;7.80;99.90;;;;;;4966314;28;20054;-68
2022/05/05 01:11:03;;;;;;;14.88;4.70;;;7.80;99.90;;;;;;4991545;28;231301;-68
2022/05/05 01:13:31;;;;;;;15.18;4.90;;;7.80;99.90;;;;;;4982292;28;20037;-68
2022/05/05 01:15:58;;;;;;;13.57;4.88;;;7.80;99.90;;;;;;4997871;28;54559;-68
2022/05/05 01:18:25;;;;;;;13.85;4.43;;;7.90;99.90;;;;;;4978861;28;20061;-68
2022/05/05 01:20:54;;;;;;;12.80;4.32;;;7.80;99.90;;;;;;5002037;28;184053;-68
2022/05/05 01:23:21;;;;;;;13.93;5.22;;;7.80;99.90;;;;;;4969751;28;20049;-68
2022/05/05 01:28:39;;;;;;;18.02;5.57;;;7.90;99.90;;;;;;4980805;28;20053;-68
2022/05/05 01:31:07;;;;;;;14.52;5.20;;;7.90;99.90;;;;;;5001296;28;133420;-68
2022/05/05 01:33:34;;;;;;;13.93;5.30;;;7.90;99.90;;;;;;4985068;28;20045;-68
2022/05/05 01:36:00;;;;;;;13.82;4.90;;;7.90;99.90;;;;;;5002549;28;33574;-69
2022/05/05 01:38:35;;;;;;;14.00;5.07;;;7.90;99.90;;;;;;4980537;28;20058;-68
2022/05/05 01:41:13;;;;;;;12.68;4.93;;;7.90;99.90;;;;;;4997759;28;249594;-68
2022/05/05 01:43:43;;;;;;;15.95;4.38;;;7.90;99.90;;;;;;4983470;28;20049;-68
2022/05/05 01:46:09;;;;;;;11.05;4.50;;;7.80;99.90;;;;;;5010315;28;44154;-68
2022/05/05 01:48:36;;;;;;;13.98;4.57;;;7.80;99.90;;;;;;4965000;28;20057;-68
2022/05/05 01:51:03;;;;;;;14.60;4.80;;;7.80;99.90;;;;;;4998898;28;60274;-68
2022/05/05 01:53:36;;;;;;;13.35;4.63;;;7.80;99.90;;;;;;4966358;28;20057;-68
2022/05/05 01:56:11;;;;;;;15.77;5.72;;;7.80;99.90;;;;;;4996775;28;95613;-68
2022/05/05 01:58:38;;;;;;;17.25;4.95;;;7.80;99.90;;;;;;4966926;28;20466;-68
2022/05/05 02:01:06;;;;;;;13.05;5.03;;;7.80;99.90;;;;;;4997248;28;208893;-69
2022/05/05 02:03:33;;;;;;;15.13;5.40;;;7.80;99.90;;;;;;4994631;28;20046;-68
2022/05/05 02:05:59;;;;;;;16.23;5.07;;;7.80;99.90;;;;;;4993114;28;145922;-68
2022/05/05 02:08:25;;;;;;;14.88;4.80;;;7.80;99.90;;;;;;4981058;28;20054;-68
2022/05/05 02:10:51;;;;;;;16.38;5.82;;;7.80;99.90;;;;;;5014836;28;59386;-68
2022/05/05 02:13:20;;;;;;;14.75;4.95;;;7.70;99.90;;;;;;4998227;28;20454;-67
2022/05/05 02:15:47;;;;;;;17.52;5.70;;;7.80;99.90;;;;;;4962272;28;91645;-68
2022/05/05 02:18:13;;;;;;;14.85;5.75;;;7.80;99.90;;;;;;4993043;28;20057;-68
2022/05/05 02:20:40;;;;;;;14.32;6.25;;;7.80;99.90;;;;;;4967201;28;138230;-68
2022/05/05 02:23:08;;;;;;;18.52;5.80;;;7.70;99.90;;;;;;5008894;28;20053;-68
2022/05/05 02:25:34;;;;;;;14.80;6.57;;;7.80;99.90;;;;;;4978236;28;29330;-68
2022/05/05 02:28:00;;;;;;;13.25;6.00;;;7.70;99.90;;;;;;5007424;28;20050;-68
2022/05/05 02:30:28;;;;;;;13.63;6.03;;;7.70;99.90;;;;;;4993043;28;141495;-68
2022/05/05 02:32:55;;;;;;;13.85;6.32;;;7.70;99.90;;;;;;5024860;28;20057;-69
2022/05/05 02:35:21;;;;;;;15.43;5.82;;;7.70;99.90;;;;;;4983416;28;27122;-69
2022/05/05 02:40:32;;;;;;;12.82;6.07;;;7.60;99.90;;;;;;4997284;28;58176;-69
2022/05/05 02:42:59;;;;;;;14.82;6.85;;;7.50;99.90;;;;;;5010284;28;20663;-69
2022/05/05 02:45:26;;;;;;;16.33;7.20;;;7.50;99.90;;;;;;4989335;28;269664;-69
2022/05/05 02:47:52;;;;;;;16.58;7.18;;;7.50;99.90;;;;;;4994166;28;20050;-69
2022/05/05 02:50:19;;;;;;;18.38;7.47;;;7.40;99.90;;;;;;4973876;28;71137;-69
2022/05/05 02:52:45;;;;;;;18.95;7.90;;;7.40;99.90;;;;;;5015925;28;20058;-69
2022/05/05 02:55:11;;;;;;;16.75;7.30;;;7.40;99.90;;;;;;4985492;28;108973;-69
2022/05/05 02:57:37;;;;;;;21.27;8.00;;;7.30;99.90;;;;;;5014938;28;20053;-69
2022/05/05 03:00:07;;;;;;;18.15;8.23;;;7.30;99.90;;;;;;4986315;28;20046;-69
2022/05/05 03:02:34;;;;;;;15.65;8.00;;;7.30;99.90;;;;;;5005459;28;20513;-69
2022/05/05 03:05:00;;;;;;;19.45;8.30;;;7.30;99.90;;;;;;4965898;28;231445;-69
2022/05/05 03:07:26;;;;;;;17.10;7.70;;;7.30;99.90;;;;;;5013123;28;20053;-69
2022/05/05 03:09:52;;;;;;;15.93;7.10;;;7.20;99.90;;;;;;4980663;28;202612;-69
2022/05/05 03:12:19;;;;;;;18.00;8.23;;;7.20;99.90;;;;;;5001569;28;20045;-69
2022/05/05 03:14:46;;;;;;;15.80;7.65;;;7.20;99.90;;;;;;4977817;28;179174;-69
2022/05/05 03:17:13;;;;;;;19.15;7.63;;;7.20;99.90;;;;;;5000689;28;20063;-69
2022/05/05 03:19:39;;;;;;;16.73;7.20;;;7.20;99.90;;;;;;4980021;28;149557;-69
2022/05/05 03:22:05;;;;;;;17.73;8.25;;;7.30;99.90;;;;;;5017411;28;20048;-69
2022/05/05 03:24:31;;;;;;;17.60;7.97;;;7.20;99.90;;;;;;4984266;28;35009;-69
2022/05/05 03:27:00;;;;;;;16.55;7.43;;;7.30;99.90;;;;;;5020445;28;20045;-69
2022/05/05 03:29:26;;;;;;;18.85;7.80;;;7.20;99.90;;;;;;4979178;28;217485;-69
2022/05/05 03:31:53;;;;;;;16.85;7.72;;;7.30;99.90;;;;;;5021514;28;20052;-69
2022/05/05 03:34:19;;;;;;;18.58;7.60;;;7.30;99.90;;;;;;4981741;28;38513;-69
2022/05/05 03:36:46;;;;;;;17.42;7.97;;;7.30;99.90;;;;;;5006000;28;20499;-69
2022/05/05 03:39:12;;;;;;;14.05;7.55;;;7.30;99.90;;;;;;4977893;28;135798;-69
2022/05/05 03:41:38;;;;;;;14.85;7.82;;;7.30;99.90;;;;;;5026315;28;20050;-69
2022/05/05 03:44:05;;;;;;;19.08;7.85;;;7.30;99.90;;;;;;4962358;28;20036;-69
2022/05/05 03:46:32;;;;;;;16.85;8.30;;;7.30;99.90;;;;;;5020553;28;20418;-69
2022/05/05 03:48:58;;;;;;;14.80;7.25;;;7.30;99.90;;;;;;4975097;28;112951;-68
2022/05/05 03:51:24;;;;;;;19.58;7.53;;;7.40;99.90;;;;;;5028326;28;20050;-69
2022/05/05 03:53:52;;;;;;;15.93;8.18;;;7.40;99.90;;;;;;4987842;28;20048;-69
2022/05/05 03:56:18;;;;;;;15.10;6.90;;;7.40;99.90;;;;;;5009547;28;113970;-69
2022/05/05 03:58:45;;;;;;;15.07;7.60;;;7.50;99.90;;;;;;4969121;28;20052;-70
2022/05/05 04:01:11;;;;;;;16.00;8.77;;;7.50;99.90;;;;;;4989374;28;237063;-69
2022/05/05 04:03:43;;;;;;;16.42;8.10;;;7.50;99.90;;;;;;4979028;28;20041;-69
2022/05/05 04:06:10;;;;;;;17.38;8.02;;;7.50;99.90;;;;;;4989766;28;204161;-70
2022/05/05 04:08:38;;;;;;;14.57;7.47;;;7.60;99.90;;;;;;4983713;28;20527;-69
2022/05/05 04:11:06;;;;;;;17.92;7.80;;;7.60;99.90;;;;;;5010607;28;165934;-69
2022/05/05 04:13:32;;;;;;;14.60;7.05;;;7.60;99.90;;;;;;4966230;28;20057;-68
2022/05/05 04:15:58;;;;;;;14.48;6.72;;;7.60;99.90;;;;;;5007832;28;254879;-70
2022/05/05 04:18:24;;;;;;;14.15;7.82;;;7.70;99.90;;;;;;4981774;28;20530;-69
2022/05/05 04:20:50;;;;;;;13.30;6.75;;;7.70;99.90;;;;;;5008494;28;71292;-70
2022/05/05 04:23:16;;;;;;;16.55;7.30;;;7.70;99.90;;;;;;5002990;28;20503;-68
2022/05/05 04:25:44;;;;;;;17.30;7.63;;;7.80;99.90;;;;;;4963970;28;160810;-69
2022/05/05 04:28:12;;;;;;;15.15;7.43;;;7.80;99.90;;;;;;4993446;28;20042;-69
2022/05/05 04:30:39;;;;;;;16.17;8.23;;;7.80;99.90;;;;;;4989790;28;62888;-69
2022/05/05 04:33:09;;;;;;;15.10;7.47;;;7.80;99.90;;;;;;5011133;28;20061;-69
2022/05/05 04:35:36;;;;;;;19.58;8.40;;;7.90;99.90;;;;;;4996078;28;45684;-68
2022/05/05 04:38:03;;;;;;;16.73;7.50;;;7.90;99.90;;;;;;5008617;28;20049;-69
2022/05/05 04:40:30;;;;;;;17.45;7.97;;;7.90;99.90;;;;;;4995154;28;41676;-69
2022/05/05 04:42:57;;;;;;;16.88;8.07;;;8.00;99.90;;;;;;5011222;28;20410;-69
2022/05/05 04:45:23;;;;;;;17.13;7.65;;;8.00;99.90;;;;;;4971928;28;249969;-68
2022/05/05 04:47:50;;;;;;;19.13;7.88;;;8.00;99.90;;;;;;5009842;28;20053;-70
2022/05/05 04:50:17;;;;;;;18.67;8.75;;;8.00;99.90;;;;;;4992793;28;181498;-69
2022/05/05 04:52:45;;;;;;;17.02;8.75;;;8.00;99.90;;;;;;5004509;28;20064;-69
2022/05/05 04:55:11;;;;;;;17.52;7.63;;;8.10;99.90;;;;;;4987218;28;255359;-70
2022/05/05 04:57:38;;;;;;;18.45;8.68;;;8.10;99.90;;;;;;5010363;28;20054;-69
2022/05/05 05:00:09;;;;;;;18.55;8.68;;;8.10;99.90;;;;;;4965043;28;112812;-69
2022/05/05 05:02:35;;;;;;;17.48;7.90;;;8.10;99.90;;;;;;4997361;28;20073;-69
2022/05/05 05:05:01;;;;;;;18.77;7.85;;;8.20;99.90;;;;;;4962953;28;219200;-69
2022/05/05 05:07:27;;;;;;;17.73;7.65;;;8.20;99.90;;;;;;4995326;28;20050;-69
2022/05/05 05:09:54;;;;;;;19.30;7.85;;;8.30;99.90;;;;;;4980129;28;151541;-69
2022/05/05 05:12:20;;;;;;;16.13;7.40;;;8.30;99.90;;;;;;4998085;28;20065;-70
2022/05/05 05:14:46;;;;;;;16.15;7.43;;;8.40;99.90;;;;;;4984838;28;43513;-70
2022/05/05 05:17:12;;;;;;;16.17;7.68;;;8.40;99.90;;;;;;5015691;28;20046;-69
2022/05/05 05:19:38;;;;;;;17.15;7.30;;;8.40;99.90;;;;;;4975128;28;245340;-69
2022/05/05 05:22:05;;;;;;;17.40;7.32;;;8.40;99.90;;;;;;5010327;28;20384;-69
2022/05/05 05:24:32;;;;;;;17.40;7.30;;;8.40;99.90;;;;;;4976166;28;174367;-70
2022/05/05 05:26:58;;;;;;;15.52;7.25;;;8.40;99.90;;;;;;5017614;28;20060;-70
2022/05/05 05:29:24;;;;;;;17.48;7.38;;;8.40;99.90;;;;;;4974557;28;173886;-67
2022/05/05 05:31:50;;;;;;;18.17;7.63;;;8.50;99.90;;;;;;5002330;28;20057;-68
2022/05/05 05:34:17;;;;;;;18.40;7.60;;;8.50;99.90;;;;;;4975477;28;208453;-70
2022/05/05 05:36:43;;;;;;;21.25;7.78;;;8.50;99.90;;;;;;5019694;28;20474;-69
2022/05/05 05:39:09;;;;;;;16.52;7.65;;;8.60;99.90;;;;;;4984341;28;147612;-68
2022/05/05 05:41:35;;;;;;;17.00;7.63;;;8.70;99.90;;;;;;5025856;28;20049;-70
2022/05/05 05:44:01;;;;;;;15.00;7.15;;;8.80;99.90;;;;;;4982191;28;180474;-69
2022/05/05 05:46:27;;;;;;;14.50;7.18;;;8.80;99.90;;;;;;5030659;28;20061;-68
2022/05/05 05:48:53;;;;;;;14.95;7.35;;;8.90;99.90;;;;;;4971083;28;20050;-69
2022/05/05 05:51:19;;;;;;;16.83;7.05;;;9.00;99.90;;;;;;5012812;28;259526;-69
2022/05/05 05:53:46;;;;;;;18.83;8.38;;;9.10;99.90;;;;;;4987177;28;20052;-69
2022/05/05 05:56:12;;;;;;;15.75;7.35;;;9.10;99.90;;;;;;5001335;28;99707;-69
2022/05/05 05:58:38;;;;;;;18.75;8.10;;;9.20;99.90;;;;;;4986804;28;20404;-69
2022/05/05 06:01:06;;;;;;;15.73;7.70;;;9.20;99.90;;;;;;4995918;28;129595;-69
2022/05/05 06:06:17;;;;;;;14.52;7.47;;;9.30;99.90;;;;;;4994392;28;246349;-69
2022/05/05 06:08:44;;;;;;;14.85;7.05;;;9.40;99.90;;;;;;4990890;28;20045;-69
2022/05/05 06:11:11;;;;;;;21.52;7.68;;;9.50;99.90;;;;;;5008312;28;114399;-70
2022/05/05 06:13:38;;;;;;;17.40;7.88;;;9.50;99.90;;;;;;4989386;28;20046;-67
2022/05/05 06:16:06;;;;;;;17.67;7.50;;;9.70;99.90;;;;;;4982187;28;148934;-71
2022/05/05 06:18:53;;;;;;;18.10;7.80;;;9.70;99.90;;;;;;4988736;28;20057;-68
2022/05/05 06:21:19;;;;;;;15.57;7.00;;;9.80;99.90;;;;;;5002580;28;209508;-69
2022/05/05 06:23:45;;;;;;;22.40;7.72;;;10.00;99.90;;;;;;4991614;28;20049;-68
2022/05/05 06:26:12;;;;;;;20.25;7.72;;;10.10;99.90;;;;;;5010933;28;180530;-70
2022/05/05 06:28:38;;;;;;;15.75;7.20;;;10.20;99.90;;;;;;5000697;28;20918;-68
2022/05/05 06:31:05;;;;;;;16.73;7.88;;;10.30;99.90;;;;;;5015958;28;108786;-70
2022/05/05 06:33:31;;;;;;;18.70;7.40;;;10.40;99.90;;;;;;4970534;28;20556;-68
2022/05/05 06:35:57;;;;;;;18.42;7.30;;;10.60;99.90;;;;;;5001713;28;170416;-69
2022/05/05 06:38:24;;;;;;;17.50;7.40;;;10.80;99.90;;;;;;4991038;28;20053;-68
2022/05/05 06:40:51;;;;;;;19.38;7.65;;;11.00;99.90;;;;;;5057024;23;118933;-71
2022/05/05 06:43:18;;;;;;;18.30;7.43;;;11.30;99.90;;;;;;5028486;28;20044;-72
2022/05/05 06:45:45;;;;;;;20.25;7.18;;;11.50;99.90;;;;;;5017808;28;39610;-72
2022/05/05 06:48:13;;;;;;;17.40;6.80;;;11.60;99.90;;;;;;5050420;28;20053;-72
2022/05/05 06:50:39;;;;;;;15.10;6.85;;;11.70;99.90;;;;;;4992580;28;20056;-73
2022/05/05 06:53:05;;;;;;;18.05;6.60;;;11.90;99.90;;;;;;5012865;28;20191;-70
2022/05/05 06:55:31;;;;;;;17.50;6.65;;;12.10;99.90;;;;;;4986006;28;45891;-71
2022/05/05 06:57:57;;;;;;;15.57;6.63;;;12.20;99.90;;;;;;5032169;28;20482;-71
2022/05/05 07:00:24;;;;;;;18.48;6.68;;;12.20;99.90;;;;;;4979410;28;183885;-71
2022/05/05 07:02:50;;;;;;;18.95;7.43;;;12.30;99.90;;;;;;5032310;28;20950;-71
2022/05/05 07:05:27;;;;;;;14.85;6.38;;;12.40;99.90;;;;;;4984320;28;147090;-71
2022/05/05 07:07:53;;;;;;;15.02;6.38;;;12.40;99.90;;;;;;5028989;28;20053;-71
2022/05/05 07:13:06;;;;;;;15.45;6.15;;;12.70;99.90;;;;;;5028935;28;20072;-71
2022/05/05 07:15:33;;;;;;;15.57;6.68;;;12.80;99.90;;;;;;4998739;28;34704;-71
2022/05/05 07:17:59;;;;;;;14.43;5.68;;;12.70;99.90;;;;;;5029099;28;20477;-71
2022/05/05 07:20:25;;;;;;;12.68;5.82;;;12.70;99.90;;;;;;4968937;28;233837;-71
2022/05/05 07:22:51;;;;;;;14.23;5.93;;;12.80;99.90;;;;;;5025201;28;20049;-71
2022/05/05 07:25:19;;;;;;;12.95;5.82;;;12.90;99.90;;;;;;4991660;28;205335;-71
2022/05/05 07:27:45;;;;;;;14.85;5.88;;;13.10;99.90;;;;;;5010943;28;20053;-71
2022/05/05 07:30:12;;;;;;;15.55;6.63;;;13.10;99.90;;;;;;4993278;28;198697;-72
2022/05/05 07:32:39;;;;;;;15.05;6.07;;;13.30;99.90;;;;;;5029294;28;20049;-72
2022/05/05 07:35:05;;;;;;;14.02;5.78;;;13.40;99.90;;;;;;4979939;28;119742;-71
2022/05/05 07:37:32;;;;;;;17.40;5.50;;;13.60;99.90;;;;;;5026537;28;20053;-71
2022/05/05 07:39:58;;;;;;;16.05;6.07;;;13.80;99.90;;;;;;5000791;28;63183;-71
2022/05/05 07:42:24;;;;;;;18.17;5.63;;;14.00;99.90;;;;;;5015297;28;20050;-71
2022/05/05 07:44:50;;;;;;;19.98;5.85;;;14.00;99.40;;;;;;4999239;28;64062;-71
2022/05/05 07:47:16;;;;;;;17.30;6.20;;;14.10;99.90;;;;;;5013640;28;20406;-70
2022/05/05 07:49:43;;;;;;;14.82;5.55;;;14.30;99.70;;;;;;4968299;28;59611;-71
2022/05/05 07:52:09;;;;;;;17.73;5.85;;;14.50;99.90;;;;;;5031187;28;20053;-71
2022/05/05 07:54:35;;;;;;;13.77;6.30;;;14.80;99.60;;;;;;4991259;28;178871;-71
2022/05/05 07:57:02;;;;;;;14.60;5.50;;;14.90;99.20;;;;;;5030675;28;20065;-71
2022/05/05 07:59:28;;;;;;;14.93;5.90;;;15.00;98.90;;;;;;4988277;28;216059;-71
2022/05/05 08:01:54;;;;;;;19.67;5.90;;;15.20;98.40;;;;;;5021112;28;20049;-72
2022/05/05 08:04:20;;;;;;;15.48;5.70;;;15.30;98.60;;;;;;4960835;28;206712;-72
2022/05/05 08:06:46;;;;;;;16.15;5.25;;;15.40;97.50;;;;;;5011945;28;20045;-72
2022/05/05 08:09:13;;;;;;;19.25;5.47;;;15.40;97.60;;;;;;4976727;28;155842;-71
2022/05/05 08:11:39;;;;;;;20.85;6.32;;;15.40;96.60;;;;;;5021937;28;20068;-71
2022/05/05 08:14:06;;;;;;;16.20;5.70;;;15.40;96.90;;;;;;4988276;28;88121;-71
2022/05/05 08:16:33;;;;;;;18.50;5.20;;;15.50;97.10;;;;;;5004587;28;20370;-71
2022/05/05 08:18:59;;;;;;;16.10;5.38;;;15.80;96.90;;;;;;4967909;28;228507;-71
2022/05/05 08:21:25;;;;;;;13.85;4.90;;;16.00;96.50;;;;;;5007161;28;20398;-72
2022/05/05 08:28:28;;;;;;;17.00;5.65;;;16.20;96.80;;;;;;5002187;28;20498;-71
2022/05/05 08:29:23;;;;;;;14.02;4.95;;;16.80;95.70;;;;;;4991952;28;89394;-71
2022/05/05 08:31:49;;;;;;;14.13;4.75;;;17.00;95.30;;;;;;5016849;28;20084;-72
2022/05/05 08:34:15;;;;;;;13.75;4.97;;;17.10;95.40;;;;;;4991154;28;86829;-71
2022/05/05 08:36:41;;;;;;;13.38;4.78;;;17.30;95.50;;;;;;5031783;28;20061;-71
2022/05/05 08:39:08;;;;;;;13.95;4.80;;;17.50;94.90;;;;;;4988866;28;117231;-73
2022/05/05 08:41:35;;;;;;;13.88;4.65;;;17.50;93.90;;;;;;5038475;28;20049;-71
2022/05/05 08:44:01;;;;;;;13.83;4.87;;;17.60;93.90;;;;;;4980416;28;220415;-72
2022/05/05 08:46:31;;;;;;;13.90;4.93;;;17.60;93.40;;;;;;5043027;28;20419;-72
2022/05/05 08:49:02;;;;;;;14.27;5.15;;;17.40;91.30;;;;;;4992106;28;20040;-71
2022/05/05 08:51:34;;;;;;;13.50;4.90;;;17.10;91.00;;;;;;5017114;28;20403;-72
2022/05/05 08:54:05;;;;;;;15.50;5.05;;;17.20;92.90;;;;;;4991176;28;63250;-73
2022/05/05 08:56:31;;;;;;;15.75;5.32;;;17.40;92.70;;;;;;5033559;28;20057;-71
2022/05/05 08:58:57;;;;;;;15.98;5.13;;;17.60;91.00;;;;;;4985927;28;115797;-71
2022/05/05 09:01:25;;;;;;;14.77;5.00;;;17.80;91.60;;;;;;5036098;28;21466;-71
2022/05/05 09:03:51;;;;;;;15.35;5.00;;;18.00;92.00;;;;;;4998845;28;20470;-71
2022/05/05 09:06:18;;;;;;;13.57;5.25;;;18.60;92.70;;;;;;4996993;28;149660;-72
2022/05/05 09:08:47;;;;;;;16.02;5.00;;;19.10;92.20;;;;;;5000148;28;20103;-72
2022/05/05 09:11:20;;;;;;;13.93;5.28;;;19.60;91.90;;;;;;5019318;28;158183;-72
2022/05/05 09:13:46;;;;;;;15.40;5.40;;;20.10;91.10;;;;;;4983596;28;20052;-72
2022/05/05 09:16:24;;;;;;;13.35;5.10;;;20.20;87.20;;;;;;5007206;28;20060;-72
2022/05/05 09:18:50;;;;;;;16.15;5.38;;;20.40;79.80;;;;;;5000788;28;20033;-71
2022/05/05 09:21:18;;;;;;;14.88;4.88;;;20.40;80.40;;;;;;5020469;28;225445;-72
2022/05/05 09:26:30;;;;;;;14.52;5.28;;;20.90;78.40;;;;;;5008671;28;20065;-71
2022/05/05 09:28:57;;;;;;;11.95;4.65;;;21.10;76.60;;;;;;4973988;28;20048;-71
2022/05/05 09:31:23;;;;;;;17.42;5.22;;;21.40;77.80;;;;;;5018438;28;20060;-72
2022/05/05 09:33:50;;;;;;;10.93;4.70;;;21.90;75.70;;;;;;5001420;28;20099;-73
2022/05/05 09:36:26;;;;;;;12.35;4.63;;;22.10;71.50;;;;;;5020922;28;110103;-72
2022/05/05 09:39:05;;;;;;;10.55;4.85;;;22.30;70.60;;;;;;5001709;28;20041;-72
2022/05/05 09:41:34;;;;;;;12.82;4.82;;;22.50;69.20;;;;;;5011765;28;20070;-73
2022/05/05 09:44:11;;;;;;;11.13;4.88;;;23.00;69.30;;;;;;4991252;28;186705;-73
2022/05/05 09:46:37;;;;;;;13.05;5.00;;;23.30;57.60;;;;;;5040857;28;20061;-73
2022/05/05 09:49:13;;;;;;;10.77;4.87;;;22.90;62.20;;;;;;4990432;28;185224;-73
2022/05/05 09:57:39;;;;;;;11.15;4.80;;;22.40;61.30;;;;;;5038171;28;20534;-72
2022/05/05 09:57:41;;;;;;;11.23;4.88;;;22.80;62.20;;;;;;5031901;28;20080;-72
2022/05/05 10:00:55;;;;;;;9.95;4.10;;;23.00;60.10;;;;;;4999723;28;158115;-72
2022/05/05 10:05:57;;;;;;;10.38;4.18;;;23.10;60.30;;;;;;4967988;28;132870;-72
2022/05/05 10:08:36;;;;;;;12.00;4.72;;;23.50;58.50;;;;;;5002615;28;20402;-73
2022/05/05 10:11:07;;;;;;;9.85;4.45;;;23.60;56.40;;;;;;5026092;28;20060;-71
2022/05/05 10:13:37;;;;;;;11.98;4.70;;;23.50;54.80;;;;;;5006830;28;20524;-71
2022/05/05 10:16:05;;;;;;;15.77;4.60;;;23.30;55.50;;;;;;5021683;28;253772;-73
2022/05/05 10:18:37;;;;;;;12.45;5.22;;;23.00;53.60;;;;;;4998187;28;20050;-72
2022/05/05 10:21:06;;;;;;;12.35;4.70;;;22.70;54.00;;;;;;5015313;28;207057;-73
2022/05/05 10:23:32;;;;;;;11.77;4.88;;;22.60;54.90;;;;;;5004354;28;20053;-73
2022/05/05 10:26:00;;;;;;;12.02;4.88;;;22.80;54.50;;;;;;5029817;28;46669;-73
2022/05/05 10:28:40;;;;;;;10.25;4.32;;;23.00;55.00;;;;;;5002267;28;20471;-72
2022/05/05 10:31:37;;;;;;;10.60;4.20;;;23.20;54.70;;;;;;5028542;28;152532;-73
2022/05/05 10:34:13;;;;;;;17.35;4.80;;;23.40;54.70;;;;;;4920958;28;227802;-72
2022/05/05 10:36:39;;;;;;;13.68;5.03;;;23.70;55.40;;;;;;4959911;28;20054;-73
2022/05/05 10:39:19;;;;;;;10.30;3.95;;;23.80;54.10;;;;;;4922670;28;253128;-73
2022/05/05 10:41:45;;;;;;;11.43;4.07;;;23.80;50.40;;;;;;4952451;28;20046;-73
2022/05/05 10:44:23;;;;;;;10.60;4.05;;;23.20;52.20;;;;;;4924940;28;20043;-73
2022/05/05 10:46:52;;;;;;;8.93;4.20;;;23.10;52.20;;;;;;4962605;28;20065;-73
2022/05/05 10:49:34;;;;;;;13.32;5.28;;;23.10;51.70;;;;;;4926189;28;52374;-73
2022/05/05 10:52:12;;;;;;;12.32;4.70;;;23.40;51.10;;;;;;4959661;28;20059;-71
2022/05/05 10:54:43;;;;;;;11.63;4.82;;;23.20;51.60;;;;;;4927149;28;189079;-72
2022/05/05 10:57:27;;;;;;;11.77;5.15;;;23.10;52.10;;;;;;4952125;28;20501;-73
2022/05/05 11:00:13;;;;;;;10.55;4.80;;;23.40;51.70;;;;;;4930670;28;182289;-74
2022/05/05 11:03:00;;;;;;;10.73;4.75;;;23.50;51.40;;;;;;4971709;28;20046;-74
2022/05/05 11:05:31;;;;;;;12.00;5.15;;;23.60;49.90;;;;;;4907069;28;217512;-72
2022/05/05 11:08:09;;;;;;;11.50;4.60;;;23.50;51.20;;;;;;4967537;28;20054;-72
2022/05/05 11:10:41;;;;;;;12.45;5.80;;;23.80;51.40;;;;;;4943618;28;20053;-72
2022/05/05 11:13:08;;;;;;;10.10;5.15;;;23.20;49.40;;;;;;5030578;28;20053;-71
2022/05/05 11:21:35;;;;;;;10.75;4.20;;;23.10;50.40;;;;;;5035751;28;41592;-73
2022/05/05 11:24:02;;;;;;;9.27;3.70;;;23.30;49.90;;;;;;5008894;28;43732;-72
2022/05/05 11:26:31;;;;;;;10.18;3.88;;;23.70;51.00;;;;;;5039728;28;20163;-73
2022/05/05 11:28:58;;;;;;;9.80;3.85;;;24.20;50.30;;;;;;5009774;28;80340;-72
2022/05/05 11:31:29;;;;;;;10.80;3.70;;;24.50;50.00;;;;;;5055075;28;20052;-72
2022/05/05 11:33:56;;;;;;;10.75;4.32;;;24.50;48.90;;;;;;5018599;28;84808;-70
2022/05/05 11:36:27;;;;;;;12.48;4.55;;;24.50;49.10;;;;;;5024027;28;20061;-72
2022/05/05 11:38:53;;;;;;;9.60;4.50;;;24.80;49.00;;;;;;5005283;28;20041;-73
2022/05/05 11:41:20;;;;;;;10.73;3.90;;;25.10;49.40;;;;;;5028915;28;269031;-72
2022/05/05 11:46:32;;;;;;;10.15;3.60;;;26.10;48.20;;;;;;5005499;28;20055;-72
2022/05/05 11:48:59;;;;;;;11.77;4.25;;;26.60;48.80;;;;;;5012975;28;20728;-72
2022/05/05 11:51:28;;;;;;;9.85;4.10;;;26.40;45.60;;;;;;5038486;28;20049;-74
2022/05/05 11:54:02;;;;;;;9.50;4.30;;;25.90;46.10;;;;;;5023462;28;66571;-71
2022/05/05 11:56:29;;;;;;;11.43;3.97;;;25.90;45.50;;;;;;5057357;28;20056;-72
2022/05/05 12:02:04;;;;;;;10.57;4.78;;;26.00;44.90;;;;;;5023734;28;20060;-73
2022/05/05 12:04:31;;;;;;;11.40;4.22;;;25.80;45.40;;;;;;4988829;28;225367;-73
2022/05/05 12:06:58;;;;;;;9.90;3.80;;;25.30;46.30;;;;;;5040938;28;20053;-73
2022/05/05 12:09:25;;;;;;;10.93;4.57;;;25.70;48.00;;;;;;4987487;28;98766;-73
2022/05/05 12:11:51;;;;;;;10.27;4.65;;;26.40;48.00;;;;;;5044986;28;20038;-73
2022/05/05 12:14:20;;;;;;;12.98;5.65;;;27.00;46.00;;;;;;5000911;28;73559;-72
2022/05/05 12:16:47;;;;;;;11.38;5.05;;;27.00;45.80;;;;;;5046168;28;20067;-73
2022/05/05 12:19:15;;;;;;;11.85;4.95;;;27.30;45.00;;;;;;4999803;28;75940;-73
2022/05/05 12:21:53;;;;;;;13.40;4.75;;;27.20;44.40;;;;;;5038461;28;20057;-72
2022/05/05 12:24:22;;;;;;;12.75;5.30;;;27.70;43.60;;;;;;4987179;28;227206;-73
2022/05/05 12:26:49;;;;;;;11.18;4.82;;;27.60;44.90;;;;;;5011022;28;20053;-73
2022/05/05 12:29:17;;;;;;;10.52;4.60;;;27.40;43.00;;;;;;5009292;28;27105;-73
2022/05/05 12:31:57;;;;;;;11.50;4.80;;;26.90;45.00;;;;;;5045653;28;20042;-73
2022/05/05 12:34:27;;;;;;;13.60;4.30;;;27.00;43.70;;;;;;4978324;28;166821;-72
2022/05/05 12:37:14;;;;;;;9.57;4.05;;;26.80;44.70;;;;;;5043039;28;20038;-72
2022/05/05 12:39:50;;;;;;;10.40;4.50;;;26.80;43.10;;;;;;5003040;28;243140;-73
2022/05/05 12:42:16;;;;;;;9.95;4.72;;;27.00;44.50;;;;;;5045276;28;20053;-73
2022/05/05 12:44:46;;;;;;;9.68;5.20;;;27.40;43.60;;;;;;5006384;28;147634;-73
2022/05/05 12:47:12;;;;;;;9.27;4.90;;;27.50;43.30;;;;;;5042526;28;20125;-73
2022/05/05 12:49:44;;;;;;;10.13;5.07;;;26.90;42.60;;;;;;5009352;28;43283;-72
2022/05/05 13:00:24;;;;;;;13.40;4.82;;;24.20;44.90;;;;;;5007350;28;220919;-73
2022/05/05 13:02:50;;;;;;;10.65;4.70;;;24.50;45.90;;;;;;5041200;28;20061;-73
2022/05/05 13:05:17;;;;;;;9.65;4.95;;;25.00;45.30;;;;;;4989451;28;232311;-72
2022/05/05 13:07:44;;;;;;;12.27;4.90;;;24.90;44.60;;;;;;5046212;28;20049;-72
2022/05/05 13:10:10;;;;;;;12.70;5.13;;;24.90;44.90;;;;;;5012817;28;105899;-73
2022/05/05 13:12:36;;;;;;;11.00;4.82;;;25.00;44.70;;;;;;5025106;28;20057;-72
2022/05/05 13:15:02;;;;;;;9.50;4.38;;;24.30;44.10;;;;;;5010920;28;34864;-72
2022/05/05 13:17:29;;;;;;;11.82;4.40;;;23.80;45.70;;;;;;5008609;28;20068;-73
2022/05/05 13:19:55;;;;;;;10.80;4.50;;;23.90;45.90;;;;;;5002058;28;182861;-73
2022/05/05 13:22:21;;;;;;;9.68;4.50;;;24.20;45.40;;;;;;5036038;28;20068;-72
2022/05/05 13:24:47;;;;;;;10.15;4.80;;;23.80;46.20;;;;;;4985445;28;258662;-73
2022/05/05 13:27:13;;;;;;;9.15;4.45;;;23.80;45.30;;;;;;5043763;28;20069;-72
2022/05/05 13:29:40;;;;;;;9.30;4.70;;;23.60;45.70;;;;;;4997663;28;146386;-72